Flight Track Log - Related Links

Times and Time Zones

All times are in EDT time to prevent confusion due to time zone crossing. See the EJA982 flight status page for this flight to view local times or setup timezone preferences in your user account.

Time Position Orientation Groundspeed Altitude Reporting Facility
EDT Latitude Longitude Course Direction KTS MPH feet Rate Location/Type
Sun 06:52:06 PM 47.2872 -122.5778 284° West 177 204 1,300  Level Seattle Center
Sun 06:53:16 PM 47.3028 -122.6672 284° West 232 267 5,500 3,756 Climbing Seattle Center
Sun 06:54:17 PM 47.3017 -122.7703 269° West 253 291 9,500 3,836 Climbing Seattle Center
Sun 06:55:18 PM 47.2825 -122.8950 257° West 323 372 13,300 4,082 Climbing Seattle Center
Sun 06:56:19 PM 47.2508 -123.0178 249° West 327 376 17,800 3,492 Climbing Seattle Center
Sun 06:57:20 PM 47.2036 -123.1433 241° Southwest 357 411 20,400 2,754 Climbing Seattle Center
Sun 06:58:21 PM 47.0689 -123.1944 194° South 442 509 23,400 2,557 Climbing Seattle Center
Sun 06:59:22 PM 46.9397 -123.2003 182° South 467 537 25,600 1,770 Climbing Seattle Center
Sun 07:00:23 PM 46.8050 -123.2078 182° South 487 560 27,000 1,426 Climbing Seattle Center
Sun 07:01:24 PM 46.6606 -123.2150 182° South 518 596 28,500 1,230 Climbing Seattle Center
Sun 07:02:25 PM 46.5108 -123.2261 183° South 543 625 29,500 1,230 Climbing Seattle Center
Sun 07:03:26 PM 46.3419 -123.2322 181° South 562 647 31,000 1,918 Climbing Seattle Center
Sun 07:04:27 PM 46.1864 -123.2342 180° South 561 646 33,400 2,803 Climbing Seattle Center
Sun 07:05:28 PM 46.0383 -123.2408 182° South 536 617 36,700 1,785 Climbing Seattle Center
Sun 07:06:28 PM 45.8906 -123.2489 182° South 535 616 37,000 149 Climbing Seattle Center
Sun 07:07:29 PM 45.7283 -123.2533 181° South 577 664 37,000  Level Seattle Center
Sun 07:08:30 PM 45.5697 -123.2606 182° South 575 662 37,000  Level Seattle Center
Sun 07:09:31 PM 45.4139 -123.2656 181° South 562 647 37,000  Level Seattle Center
Sun 07:10:32 PM 45.2617 -123.2714 182° South 550 633 37,000  Level Seattle Center
Sun 07:11:33 PM 45.1053 -123.2778 182° South 555 639 37,000  Level Seattle Center
Sun 07:12:34 PM 44.9464 -123.2825 181° South 559 643 37,000  Level Seattle Center
Sun 07:13:35 PM 44.7878 -123.2900 182° South 558 642 37,000  Level Seattle Center
Sun 07:14:36 PM 44.6308 -123.2947 181° South 559 643 37,000  Level Seattle Center
Sun 07:15:37 PM 44.4756 -123.3017 182° South 558 642 37,000  Level Seattle Center
Sun 07:16:38 PM 44.3178 -123.3058 181° South 566 651 37,000  Level Seattle Center
Sun 07:17:39 PM 44.1636 -123.3125 182° South 560 644 37,000  Level Seattle Center
Sun 07:18:40 PM 43.9892 -123.3206 182° South 554 638 37,000  Level Seattle Center
Sun 07:19:40 PM 43.8353 -123.3269 182° South 552 635 37,000  Level Seattle Center
Sun 07:20:41 PM 43.6794 -123.3319 181° South 558 642 37,000  Level Seattle Center
Sun 07:21:42 PM 43.5261 -123.3381 182° South 553 636 37,000  Level Seattle Center
Sun 07:22:43 PM 43.3711 -123.3414 181° South 553 636 37,000  Level Seattle Center
Sun 07:23:44 PM 43.2167 -123.3489 182° South 554 638 37,000  Level Seattle Center
Sun 07:24:45 PM 43.0617 -123.3475 180° South 556 640 37,000  Level Seattle Center
Sun 07:25:46 PM 42.9075 -123.3442 179° South 553 636 37,000  Level Seattle Center
Sun 07:26:47 PM 42.7217 -123.3411 179° South 555 639 37,000  Level Seattle Center
Sun 07:27:48 PM 42.5942 -123.3389 179° South 554 638 37,000  Level Seattle Center
Sun 07:28:48 PM 42.4406 -123.3342 179° South 553 636 37,000  Level Seattle Center
Sun 07:29:49 PM 42.2544 -123.3333 180° South 558 642 37,000  Level Seattle Center
Sun 07:30:50 PM 42.0992 -123.3283 179° South 562 647 37,000  Level Seattle Center
Sun 07:31:51 PM 41.9453 -123.3258 179° South 557 641 37,000  Level Seattle Center
Sun 07:32:52 PM 41.7911 -123.3231 179° South 556 640 37,000  Level Seattle Center
Sun 07:33:53 PM 41.6400 -123.3189 179° South 546 628 37,000  Level Seattle Center
Sun 07:34:14 PM 41.5917 -123.3181 179° South 540 621 37,000  Level Oakland Center
Sun 07:35:15 PM 41.4419 -123.2967 174° South 540 621 37,000  Level Oakland Center
Sun 07:35:55 PM 41.3508 -123.2847 174° South 540 621 37,000  Level Seattle Center
Sun 07:36:56 PM 41.2006 -123.2642 174° South 542 624 37,000  Level Seattle Center
Sun 07:37:57 PM 41.0489 -123.2442 174° South 544 626 37,000  Level Seattle Center
Sun 07:38:58 PM 40.8678 -123.2214 175° South 543 625 37,000  Level Seattle Center
Sun 07:39:21 PM 40.8389 -123.2183 175° South 542 624 37,000  Level Oakland Center
Sun 07:40:22 PM 40.6689 -123.1953 174° South 542 624 37,000  Level Oakland Center
Sun 07:41:24 PM 40.5194 -123.1756 174° South 543 625 37,000  Level Oakland Center
Sun 07:42:25 PM 40.3686 -123.1564 174° South 546 628 37,000  Level Oakland Center
Sun 07:43:26 PM 40.2183 -123.1361 174° South 547 629 37,000  Level Oakland Center
Sun 07:44:28 PM 40.0375 -123.1139 175° South 547 629 37,000  Level Oakland Center
Sun 07:45:29 PM 39.8892 -123.0961 175° South 543 625 37,000  Level Oakland Center
Sun 07:46:31 PM 39.7389 -123.0761 174° South 546 628 37,000  Level Oakland Center
Sun 07:47:32 PM 39.5878 -123.0514 173° South 549 632 37,000  Level Oakland Center
Sun 07:48:33 PM 39.4506 -123.0164 169° South 545 627 37,000  Level Oakland Center
Sun 07:49:35 PM 39.2717 -122.9739 170° South 546 628 37,000  Level Oakland Center
Sun 07:50:36 PM 39.1211 -122.9414 170° South 549 632 37,000  Level Oakland Center
Sun 07:51:38 PM 38.9708 -122.9081 170° South 548 631 37,000 -488 Level Oakland Center
Sun 07:52:39 PM 38.8225 -122.8756 170° South 541 623 36,000 -1,918 Descending Oakland Center
Sun 07:53:40 PM 38.6803 -122.8453 171° South 524 603 33,100 -2,829 Descending Oakland Center
Sun 07:54:42 PM 38.5347 -122.8136 170° South 528 608 30,200 -2,878 Descending Oakland Center
Sun 07:55:43 PM 38.3900 -122.7814 170° South 530 610 27,200 -2,878 Descending Oakland Center
Sun 07:56:45 PM 38.2458 -122.7489 170° South 527 606 24,300 -2,976 Descending Oakland Center
Sun 07:57:46 PM 38.0875 -122.7158 171° South 480 552 21,100 -3,049 Descending Oakland Center
Sun 07:58:47 PM 37.9589 -122.6886 171° South 475 547 18,100 -2,976 Descending Oakland Center
Sun 07:59:49 PM 37.8542 -122.6297 156° South 443 510 15,000 -2,293 Descending Oakland Center
Sun 08:00:50 PM 37.7669 -122.5339 139° Southeast 427 491 13,400 -1,475 Descending Oakland Center
Sun 08:01:51 PM 37.6792 -122.4394 140° Southeast 422 486 12,000 -689 Descending Oakland Center
Sun 08:02:52 PM 37.5778 -122.3703 152° Southeast 336 387 12,000  Level Oakland Center
Sun 08:03:54 PM 37.5011 -122.3233 154° Southeast 311 358 12,000  Level Oakland Center
Sun 08:04:55 PM 37.4222 -122.2753 154° Southeast 316 364 12,000 -295 Level Oakland Center
Sun 08:05:56 PM 37.3550 -122.2078 141° Southeast 326 375 11,400 -878 Descending Oakland Center
Sun 08:06:58 PM 37.3075 -122.1225 125° Southeast 305 351 10,200 -1,463 Descending Oakland Center
Sun 08:07:59 PM 37.2600 -122.0403 126° Southeast 294 338 8,400 -1,770 Descending Oakland Center
Sun 08:09:00 PM 37.2133 -121.9597 126° Southeast 288 331 6,600 -1,561 Descending Oakland Center
Sun 08:10:02 PM 37.2097 -121.8739 93° East 264 304 5,200 -1,463 Descending Oakland Center
Sun 08:11:03 PM 37.2572 -121.8436 27° Northeast 223 257 3,600 -1,672 Descending Oakland Center
Sun 08:12:04 PM 37.3053 -121.8633 342° North 176 203 1,800 -1,426 Descending Oakland Center
Sun 08:13:05 PM 37.3342 -121.8972 317° Northwest 153 176 700 -1,082 Descending Oakland Center

Login

Don't have an account? Register now (free) for customized features, flight alerts, and more!